Time;durP1;ratioP1;P1;durP2;ratioP2;P2;SDS_P1;SDS_P2;PMS_P1;PMS_P2;Temp;Humidity;BMP_temperature;BMP_pressure;BME280_temperature;BME280_humidity;BME280_pressure;Samples;Min_cycle;Max_cycle;Signal;HPM_P1;HPM_P2
2021/09/03 00:02:19;;;;;;;6.27;1.60;;;;;;;;;;5090290;28;20046;-61
2021/09/03 00:04:46;;;;;;;5.87;1.50;;;;;;;;;;5089423;28;20024;-61
2021/09/03 00:07:12;;;;;;;6.27;1.33;;;;;;;;;;5093782;28;20016;-61
2021/09/03 00:09:39;;;;;;;13.33;2.13;;;;;;;;;;5095024;28;20094;-61
2021/09/03 00:12:08;;;;;;;10.13;1.53;;;;;;;;;;5085655;28;20055;-61
2021/09/03 00:14:35;;;;;;;6.67;1.60;;;;;;;;;;5087092;28;20031;-61
2021/09/03 00:17:03;;;;;;;5.97;1.73;;;;;;;;;;5095191;28;20490;-61
2021/09/03 00:19:29;;;;;;;5.23;1.53;;;;;;;;;;5090899;28;20051;-61
2021/09/03 00:21:56;;;;;;;4.23;1.50;;;;;;;;;;5089669;28;20048;-61
2021/09/03 00:24:23;;;;;;;3.77;1.27;;;;;;;;;;5089237;28;20024;-62
2021/09/03 00:26:50;;;;;;;2.23;1.27;;;;;;;;;;5089478;28;20054;-61
2021/09/03 00:29:18;;;;;;;4.07;1.20;;;;;;;;;;5091800;28;20020;-61
2021/09/03 00:31:45;;;;;;;2.83;1.03;;;;;;;;;;5094906;28;20130;-64
2021/09/03 00:34:11;;;;;;;9.50;2.27;;;;;;;;;;5094393;28;20372;-64
2021/09/03 00:36:38;;;;;;;8.40;2.83;;;;;;;;;;5094399;28;20036;-62
2021/09/03 00:39:05;;;;;;;9.20;2.53;;;;;;;;;;5094471;28;20028;-61
2021/09/03 00:41:32;;;;;;;12.17;2.77;;;;;;;;;;5090899;28;20417;-61
2021/09/03 00:43:58;;;;;;;9.97;1.70;;;;;;;;;;5077709;28;20024;-61
2021/09/03 00:46:25;;;;;;;4.70;1.57;;;;;;;;;;5089417;28;20476;-61
2021/09/03 00:48:52;;;;;;;6.47;1.40;;;;;;;;;;5088991;28;20012;-63
2021/09/03 00:51:19;;;;;;;2.77;1.20;;;;;;;;;;5072470;28;20484;-63
2021/09/03 00:53:46;;;;;;;2.50;1.20;;;;;;;;;;5074185;28;20017;-63
2021/09/03 00:56:13;;;;;;;4.07;1.43;;;;;;;;;;5074168;28;20040;-63
2021/09/03 00:58:39;;;;;;;4.30;1.07;;;;;;;;;;5073933;28;20115;-61
2021/09/03 01:01:06;;;;;;;4.70;1.20;;;;;;;;;;5073487;28;20032;-61
2021/09/03 01:03:33;;;;;;;4.03;1.20;;;;;;;;;;5072592;28;20477;-61
2021/09/03 01:06:04;;;;;;;3.90;1.30;;;;;;;;;;5068786;28;20025;-61
2021/09/03 01:08:32;;;;;;;2.23;1.20;;;;;;;;;;5068801;28;20036;-61
2021/09/03 01:10:59;;;;;;;3.60;1.20;;;;;;;;;;5078534;28;20056;-61
2021/09/03 01:13:26;;;;;;;2.67;1.30;;;;;;;;;;5089614;28;20024;-61
2021/09/03 01:15:53;;;;;;;4.00;1.27;;;;;;;;;;5085636;28;20037;-61
2021/09/03 01:18:20;;;;;;;3.70;1.57;;;;;;;;;;5073414;28;20024;-61
2021/09/03 01:20:47;;;;;;;4.03;1.30;;;;;;;;;;5073812;28;20017;-61
2021/09/03 01:23:14;;;;;;;3.87;2.10;;;;;;;;;;5073700;28;20028;-61
2021/09/03 01:25:41;;;;;;;2.20;1.23;;;;;;;;;;5072817;28;20024;-61
2021/09/03 01:28:08;;;;;;;4.03;1.40;;;;;;;;;;5068136;28;20111;-61
2021/09/03 01:30:35;;;;;;;3.43;1.70;;;;;;;;;;5068451;28;20029;-61
2021/09/03 01:33:01;;;;;;;4.40;1.73;;;;;;;;;;5068241;28;20074;-61
2021/09/03 01:35:28;;;;;;;4.73;1.90;;;;;;;;;;5067282;28;20517;-61
2021/09/03 01:37:55;;;;;;;5.87;2.07;;;;;;;;;;5082870;28;20409;-62
2021/09/03 01:40:22;;;;;;;3.93;1.20;;;;;;;;;;5074359;28;20441;-61
2021/09/03 01:42:49;;;;;;;3.27;1.30;;;;;;;;;;5073205;28;20024;-61
2021/09/03 01:45:15;;;;;;;6.00;2.00;;;;;;;;;;5073038;28;20078;-61
2021/09/03 01:47:42;;;;;;;3.27;1.50;;;;;;;;;;5074265;28;20060;-61
2021/09/03 01:50:09;;;;;;;7.30;1.50;;;;;;;;;;5067805;28;20475;-63
2021/09/03 01:52:36;;;;;;;5.20;1.47;;;;;;;;;;5067919;28;20051;-63
2021/09/03 01:55:03;;;;;;;8.10;2.97;;;;;;;;;;5067786;28;20119;-63
2021/09/03 01:57:29;;;;;;;3.80;1.57;;;;;;;;;;5067389;28;20047;-62
2021/09/03 01:59:56;;;;;;;2.63;1.57;;;;;;;;;;5072043;28;20096;-61
2021/09/03 02:02:23;;;;;;;3.50;1.50;;;;;;;;;;5083608;28;20466;-61
2021/09/03 02:04:50;;;;;;;4.17;1.70;;;;;;;;;;5093245;28;20047;-61
2021/09/03 02:07:16;;;;;;;4.43;1.57;;;;;;;;;;5093069;28;20078;-63
2021/09/03 02:09:43;;;;;;;3.83;1.30;;;;;;;;;;5090882;28;20024;-63
2021/09/03 02:12:12;;;;;;;4.23;1.00;;;;;;;;;;5088825;28;20024;-63
2021/09/03 02:14:42;;;;;;;5.70;1.13;;;;;;;;;;5086901;28;20105;-63
2021/09/03 02:17:09;;;;;;;2.67;1.33;;;;;;;;;;5085806;28;20487;-63
2021/09/03 02:19:36;;;;;;;2.10;1.10;;;;;;;;;;5067417;28;20031;-63
2021/09/03 02:22:03;;;;;;;3.37;1.23;;;;;;;;;;5070703;28;20036;-63
2021/09/03 02:24:30;;;;;;;2.50;1.13;;;;;;;;;;5072709;28;20047;-61
2021/09/03 02:26:57;;;;;;;5.33;1.30;;;;;;;;;;5072396;28;20103;-64
2021/09/03 02:29:24;;;;;;;3.07;1.07;;;;;;;;;;5072387;28;20475;-64
2021/09/03 02:31:51;;;;;;;2.10;1.10;;;;;;;;;;5090477;28;20016;-62
2021/09/03 02:34:18;;;;;;;4.63;1.20;;;;;;;;;;5088752;28;20111;-62
2021/09/03 02:36:45;;;;;;;3.80;1.10;;;;;;;;;;5087142;28;20040;-63
2021/09/03 02:39:12;;;;;;;5.43;1.30;;;;;;;;;;5087229;28;20474;-63
2021/09/03 02:41:39;;;;;;;4.50;1.50;;;;;;;;;;5087299;28;20127;-63
2021/09/03 02:44:05;;;;;;;5.40;1.37;;;;;;;;;;5088134;28;20024;-63
2021/09/03 02:46:32;;;;;;;4.87;1.50;;;;;;;;;;5091741;28;20020;-62
2021/09/03 02:48:59;;;;;;;11.40;1.70;;;;;;;;;;5085448;28;20085;-61
2021/09/03 02:51:26;;;;;;;19.83;2.37;;;;;;;;;;5071762;28;20028;-65
2021/09/03 02:53:52;;;;;;;6.87;2.57;;;;;;;;;;5072990;28;20047;-65
2021/09/03 02:56:19;;;;;;;8.30;2.13;;;;;;;;;;5069896;28;20478;-64
2021/09/03 02:58:46;;;;;;;14.07;2.63;;;;;;;;;;5075358;28;20142;-64
2021/09/03 03:01:13;;;;;;;4.93;2.00;;;;;;;;;;5087113;28;20035;-62
2021/09/03 03:03:39;;;;;;;31.33;3.90;;;;;;;;;;5079058;28;20073;-62
2021/09/03 03:06:06;;;;;;;26.57;3.60;;;;;;;;;;5088324;28;20095;-62
2021/09/03 03:08:33;;;;;;;6.27;2.00;;;;;;;;;;5092246;28;20024;-62
2021/09/03 03:11:00;;;;;;;5.43;2.03;;;;;;;;;;5091675;28;20020;-64
2021/09/03 03:13:29;;;;;;;4.50;1.60;;;;;;;;;;5090469;28;20020;-61
2021/09/03 03:15:56;;;;;;;4.17;1.90;;;;;;;;;;5091887;28;20090;-61
2021/09/03 03:18:23;;;;;;;5.67;2.20;;;;;;;;;;5078566;28;20028;-61
2021/09/03 03:20:51;;;;;;;8.27;2.10;;;;;;;;;;5080295;28;20500;-61
2021/09/03 03:23:18;;;;;;;4.03;1.73;;;;;;;;;;5086777;28;20031;-63
2021/09/03 03:25:44;;;;;;;3.77;1.60;;;;;;;;;;5086964;28;20024;-64
2021/09/03 03:28:11;;;;;;;2.67;1.70;;;;;;;;;;5086655;28;20024;-64
2021/09/03 03:30:38;;;;;;;6.97;1.93;;;;;;;;;;5092060;28;20028;-66
2021/09/03 03:33:05;;;;;;;36.80;3.80;;;;;;;;;;5091389;28;20039;-66
2021/09/03 03:35:32;;;;;;;7.43;2.30;;;;;;;;;;5088592;28;20038;-65
2021/09/03 03:37:58;;;;;;;6.73;2.20;;;;;;;;;;5071804;28;20024;-65
2021/09/03 03:40:25;;;;;;;4.37;1.77;;;;;;;;;;5071332;28;20096;-65
2021/09/03 03:42:52;;;;;;;44.43;5.13;;;;;;;;;;5067499;28;20048;-65
2021/09/03 03:45:19;;;;;;;4.17;1.97;;;;;;;;;;5066404;28;20028;-64
2021/09/03 03:47:45;;;;;;;8.40;2.50;;;;;;;;;;5066291;28;20048;-64
2021/09/03 03:50:12;;;;;;;7.53;2.23;;;;;;;;;;5066472;28;20020;-64
2021/09/03 03:52:40;;;;;;;18.60;3.17;;;;;;;;;;5091015;28;20032;-64
2021/09/03 03:55:07;;;;;;;5.60;2.20;;;;;;;;;;5091776;28;20357;-66
2021/09/03 03:57:34;;;;;;;9.77;2.40;;;;;;;;;;5093196;28;20386;-66
2021/09/03 04:00:01;;;;;;;5.90;2.20;;;;;;;;;;5079817;28;20033;-65
2021/09/03 04:02:28;;;;;;;20.43;3.60;;;;;;;;;;5076235;28;20025;-64
2021/09/03 04:04:55;;;;;;;8.07;2.83;;;;;;;;;;5070178;28;20036;-64
2021/09/03 04:07:22;;;;;;;6.90;2.30;;;;;;;;;;5070008;28;20046;-64
2021/09/03 04:09:48;;;;;;;6.87;2.50;;;;;;;;;;5070027;28;20383;-64
2021/09/03 04:12:15;;;;;;;6.10;2.13;;;;;;;;;;5070106;28;20029;-63
2021/09/03 04:14:42;;;;;;;9.40;2.10;;;;;;;;;;5074424;28;20024;-62
2021/09/03 04:17:10;;;;;;;4.70;2.20;;;;;;;;;;5075042;28;20162;-63
2021/09/03 04:19:36;;;;;;;7.40;2.63;;;;;;;;;;5059918;28;20119;-63
2021/09/03 04:22:03;;;;;;;6.00;1.90;;;;;;;;;;5095174;28;20428;-64
2021/09/03 04:24:30;;;;;;;15.80;2.80;;;;;;;;;;5092856;28;20028;-65
2021/09/03 04:26:59;;;;;;;12.20;2.50;;;;;;;;;;5091655;28;20387;-64
2021/09/03 04:29:27;;;;;;;4.90;1.80;;;;;;;;;;5089604;28;20169;-63
2021/09/03 04:31:54;;;;;;;5.03;2.10;;;;;;;;;;5089759;28;20038;-61
2021/09/03 04:34:21;;;;;;;11.03;2.50;;;;;;;;;;5088058;28;20028;-62
2021/09/03 04:36:47;;;;;;;6.87;2.13;;;;;;;;;;5082716;28;20060;-61
2021/09/03 04:39:14;;;;;;;4.50;2.10;;;;;;;;;;5085391;28;20024;-62
2021/09/03 04:41:41;;;;;;;5.03;2.00;;;;;;;;;;5093826;28;20047;-62
2021/09/03 04:44:08;;;;;;;6.77;2.10;;;;;;;;;;5094392;28;20016;-61
2021/09/03 04:46:35;;;;;;;5.17;2.10;;;;;;;;;;5094736;28;20032;-61
2021/09/03 04:49:02;;;;;;;11.53;2.37;;;;;;;;;;5092203;28;20019;-61
2021/09/03 04:51:28;;;;;;;4.70;1.77;;;;;;;;;;5069469;28;20066;-60
2021/09/03 04:53:55;;;;;;;3.80;1.70;;;;;;;;;;5080879;28;20107;-60
2021/09/03 04:56:22;;;;;;;4.30;1.90;;;;;;;;;;5089536;28;20040;-61
2021/09/03 04:58:49;;;;;;;6.97;1.60;;;;;;;;;;5090382;28;20085;-61
2021/09/03 05:01:16;;;;;;;4.67;1.20;;;;;;;;;;5094365;28;20111;-60
2021/09/03 05:03:42;;;;;;;7.43;1.93;;;;;;;;;;5089645;28;20030;-61
2021/09/03 05:06:10;;;;;;;2.73;1.60;;;;;;;;;;5090577;28;20039;-60
2021/09/03 05:08:37;;;;;;;6.93;2.10;;;;;;;;;;5088612;28;20036;-60
2021/09/03 05:11:04;;;;;;;3.37;1.40;;;;;;;;;;5072213;28;20021;-61
2021/09/03 05:13:31;;;;;;;3.27;1.40;;;;;;;;;;5068653;28;20027;-61
2021/09/03 05:15:57;;;;;;;6.47;1.57;;;;;;;;;;5068817;28;20434;-61
2021/09/03 05:18:24;;;;;;;5.57;1.50;;;;;;;;;;5068643;28;20073;-61
2021/09/03 05:20:51;;;;;;;8.23;1.73;;;;;;;;;;5068883;28;20021;-60
2021/09/03 05:23:18;;;;;;;6.80;1.50;;;;;;;;;;5085471;28;20035;-62
2021/09/03 05:25:45;;;;;;;4.90;1.57;;;;;;;;;;5081803;28;20510;-63
2021/09/03 05:28:12;;;;;;;3.13;1.43;;;;;;;;;;5073657;28;20016;-63
2021/09/03 05:30:39;;;;;;;2.93;1.23;;;;;;;;;;5073596;28;20056;-63
2021/09/03 05:33:06;;;;;;;5.00;1.50;;;;;;;;;;5072825;28;20020;-63
2021/09/03 05:35:33;;;;;;;3.27;1.30;;;;;;;;;;5068245;28;20036;-63
2021/09/03 05:38:04;;;;;;;4.40;1.60;;;;;;;;;;5077400;28;20028;-63
2021/09/03 05:40:32;;;;;;;2.13;1.40;;;;;;;;;;5085357;28;20513;-64
2021/09/03 05:42:59;;;;;;;2.70;1.40;;;;;;;;;;5067923;28;20574;-63
2021/09/03 05:45:26;;;;;;;3.60;1.73;;;;;;;;;;5073323;28;20020;-63
2021/09/03 05:47:53;;;;;;;3.67;1.83;;;;;;;;;;5073136;28;20029;-63
2021/09/03 05:50:20;;;;;;;2.87;1.60;;;;;;;;;;5072960;28;20031;-63
2021/09/03 05:52:47;;;;;;;3.93;2.07;;;;;;;;;;5073217;28;20024;-64
2021/09/03 05:55:14;;;;;;;4.00;1.73;;;;;;;;;;5072928;28;20099;-63
2021/09/03 05:57:41;;;;;;;4.10;1.60;;;;;;;;;;5079986;28;20028;-63
2021/09/03 06:00:08;;;;;;;5.30;2.00;;;;;;;;;;5088103;28;20024;-63
2021/09/03 06:02:35;;;;;;;7.10;1.70;;;;;;;;;;5087539;28;20101;-63
2021/09/03 06:05:01;;;;;;;3.93;2.10;;;;;;;;;;5077508;28;20035;-64
2021/09/03 06:07:28;;;;;;;10.10;3.07;;;;;;;;;;5071873;28;20029;-63
2021/09/03 06:09:55;;;;;;;5.03;2.10;;;;;;;;;;5072703;28;20085;-60
2021/09/03 06:12:22;;;;;;;3.27;1.60;;;;;;;;;;5072743;28;20471;-60
2021/09/03 06:14:49;;;;;;;2.90;1.50;;;;;;;;;;5072377;28;20437;-63
2021/09/03 06:17:17;;;;;;;3.53;1.70;;;;;;;;;;5072547;28;20029;-64
2021/09/03 06:19:44;;;;;;;3.20;1.67;;;;;;;;;;5084551;28;20080;-63
2021/09/03 06:22:11;;;;;;;3.40;1.97;;;;;;;;;;5087748;28;20505;-63
2021/09/03 06:24:38;;;;;;;3.30;1.60;;;;;;;;;;5087347;28;20454;-63
2021/09/03 06:27:09;;;;;;;4.10;1.43;;;;;;;;;;5087606;28;20024;-63
2021/09/03 06:29:38;;;;;;;4.20;1.67;;;;;;;;;;5078893;28;20027;-63
2021/09/03 06:32:09;;;;;;;2.67;1.47;;;;;;;;;;5072367;28;20037;-63
2021/09/03 06:34:37;;;;;;;2.80;1.43;;;;;;;;;;5075952;28;20024;-63
2021/09/03 06:37:04;;;;;;;3.40;1.57;;;;;;;;;;5072407;28;20040;-63
2021/09/03 06:39:30;;;;;;;3.50;1.43;;;;;;;;;;5072795;28;20028;-63
2021/09/03 06:41:57;;;;;;;3.93;1.20;;;;;;;;;;5068517;28;20016;-63
2021/09/03 06:44:24;;;;;;;6.80;1.70;;;;;;;;;;5063124;28;20025;-64
2021/09/03 06:46:51;;;;;;;2.47;1.30;;;;;;;;;;5068164;28;20078;-64
2021/09/03 06:49:17;;;;;;;3.20;1.30;;;;;;;;;;5066930;28;20052;-63
2021/09/03 06:51:44;;;;;;;3.23;1.50;;;;;;;;;;5070030;28;20090;-63
2021/09/03 06:54:11;;;;;;;3.57;1.43;;;;;;;;;;5072390;28;20031;-64
2021/09/03 06:56:38;;;;;;;3.43;1.50;;;;;;;;;;5073259;28;20039;-62
2021/09/03 06:59:05;;;;;;;3.63;1.40;;;;;;;;;;5082039;28;20043;-62
2021/09/03 07:01:34;;;;;;;4.13;1.47;;;;;;;;;;5058691;28;20040;-63
2021/09/03 07:04:01;;;;;;;3.87;1.43;;;;;;;;;;5066446;28;20020;-62
2021/09/03 07:06:28;;;;;;;2.97;1.20;;;;;;;;;;5065639;28;20085;-63
2021/09/03 07:08:56;;;;;;;2.63;1.37;;;;;;;;;;5066234;28;20025;-62
2021/09/03 07:11:26;;;;;;;6.23;1.43;;;;;;;;;;5066083;28;20043;-63
2021/09/03 07:13:53;;;;;;;1.90;1.20;;;;;;;;;;5065184;28;20048;-63
2021/09/03 07:16:20;;;;;;;1.90;1.10;;;;;;;;;;5086733;28;20032;-63
2021/09/03 07:18:47;;;;;;;2.07;1.00;;;;;;;;;;5091887;28;20035;-60
2021/09/03 07:21:13;;;;;;;2.93;1.40;;;;;;;;;;5090403;28;20035;-61
2021/09/03 07:23:40;;;;;;;2.03;1.10;;;;;;;;;;5091650;28;20388;-60
2021/09/03 07:26:07;;;;;;;3.67;1.73;;;;;;;;;;5089720;28;20432;-61
2021/09/03 07:28:34;;;;;;;3.03;1.67;;;;;;;;;;5086327;28;20430;-61
2021/09/03 07:31:01;;;;;;;2.20;1.20;;;;;;;;;;5081794;28;20025;-60
2021/09/03 07:33:28;;;;;;;1.97;1.10;;;;;;;;;;5069643;28;20027;-60
2021/09/03 07:35:54;;;;;;;2.60;1.20;;;;;;;;;;5076001;28;20103;-60
2021/09/03 07:38:22;;;;;;;3.87;1.30;;;;;;;;;;5088493;28;20035;-61
2021/09/03 07:40:49;;;;;;;6.13;1.57;;;;;;;;;;5089426;28;20120;-60
2021/09/03 07:43:16;;;;;;;2.80;1.50;;;;;;;;;;5090806;28;20360;-61
2021/09/03 07:45:43;;;;;;;3.63;1.50;;;;;;;;;;5089319;28;20033;-61
2021/09/03 07:48:10;;;;;;;5.80;1.53;;;;;;;;;;5073631;28;20103;-60
2021/09/03 07:50:37;;;;;;;2.67;1.60;;;;;;;;;;5070445;28;20475;-60
2021/09/03 07:53:05;;;;;;;7.27;1.73;;;;;;;;;;5083446;28;20036;-61
2021/09/03 07:55:31;;;;;;;7.07;1.90;;;;;;;;;;5089830;28;20470;-61
2021/09/03 07:57:58;;;;;;;3.47;1.90;;;;;;;;;;5091182;28;20055;-60
2021/09/03 08:00:26;;;;;;;4.93;1.87;;;;;;;;;;5092846;28;20028;-60
2021/09/03 08:02:52;;;;;;;3.43;2.00;;;;;;;;;;5092111;28;20050;-60
2021/09/03 08:05:19;;;;;;;4.97;1.67;;;;;;;;;;5095559;28;20381;-60
2021/09/03 08:07:46;;;;;;;5.10;1.83;;;;;;;;;;5095558;28;20027;-60
2021/09/03 08:10:14;;;;;;;3.97;1.60;;;;;;;;;;5090051;28;20027;-60
2021/09/03 08:12:41;;;;;;;2.93;1.70;;;;;;;;;;5069930;28;20111;-61
2021/09/03 08:15:08;;;;;;;5.43;1.67;;;;;;;;;;5069887;28;20036;-60
2021/09/03 08:17:35;;;;;;;5.07;1.50;;;;;;;;;;5076294;28;20038;-60
2021/09/03 08:20:03;;;;;;;3.07;1.27;;;;;;;;;;5089621;28;20032;-61
2021/09/03 08:22:30;;;;;;;3.23;1.37;;;;;;;;;;5094827;28;20027;-61
2021/09/03 08:24:57;;;;;;;6.17;1.30;;;;;;;;;;5094896;28;20605;-61
2021/09/03 08:27:24;;;;;;;4.83;1.17;;;;;;;;;;5095291;28;20532;-61
2021/09/03 08:29:51;;;;;;;4.47;1.60;;;;;;;;;;5094574;28;20012;-61
2021/09/03 08:32:18;;;;;;;3.63;1.60;;;;;;;;;;5094605;28;20567;-60
2021/09/03 08:34:44;;;;;;;8.80;2.33;;;;;;;;;;5072370;28;20039;-60
2021/09/03 08:37:11;;;;;;;10.87;2.07;;;;;;;;;;5081713;28;20043;-61
2021/09/03 08:39:38;;;;;;;3.17;1.50;;;;;;;;;;5076216;28;20032;-60
2021/09/03 08:42:06;;;;;;;6.13;1.37;;;;;;;;;;5072371;28;20067;-60
2021/09/03 08:44:33;;;;;;;8.13;1.30;;;;;;;;;;5094312;28;20019;-60
2021/09/03 08:47:01;;;;;;;2.77;1.13;;;;;;;;;;5092539;28;20024;-60
2021/09/03 08:49:27;;;;;;;8.30;1.90;;;;;;;;;;5092655;28;20020;-60
2021/09/03 08:51:54;;;;;;;7.40;2.10;;;;;;;;;;5094208;28;20024;-60
2021/09/03 08:54:22;;;;;;;4.60;1.93;;;;;;;;;;5094431;28;20534;-60
2021/09/03 08:56:49;;;;;;;7.17;1.40;;;;;;;;;;5084208;28;20368;-60
2021/09/03 08:59:15;;;;;;;4.13;1.40;;;;;;;;;;5068804;28;20035;-61
2021/09/03 09:01:42;;;;;;;6.90;1.30;;;;;;;;;;5069149;28;20041;-60
2021/09/03 09:04:17;;;;;;;2.67;1.27;;;;;;;;;;5068989;28;20021;-61
2021/09/03 09:07:03;;;;;;;2.42;1.27;;;;;;;;;;5090708;28;20108;-61
2021/09/03 09:09:34;;;;;;;6.10;1.30;;;;;;;;;;5093976;28;20049;-60
2021/09/03 09:12:05;;;;;;;4.30;1.40;;;;;;;;;;5077729;28;20029;-61
2021/09/03 09:14:51;;;;;;;4.33;1.30;;;;;;;;;;5074027;28;20031;-60
2021/09/03 09:17:31;;;;;;;4.30;1.27;;;;;;;;;;5072872;28;20032;-60
2021/09/03 09:19:58;;;;;;;5.10;1.47;;;;;;;;;;5068744;28;20028;-60
2021/09/03 09:22:25;;;;;;;2.77;1.10;;;;;;;;;;5068617;28;20037;-60
2021/09/03 09:24:52;;;;;;;4.53;1.27;;;;;;;;;;5068382;28;20028;-60
2021/09/03 09:27:26;;;;;;;3.40;1.20;;;;;;;;;;5068939;28;20025;-60
2021/09/03 09:29:54;;;;;;;2.53;1.17;;;;;;;;;;5073563;28;20036;-61
2021/09/03 09:32:27;;;;;;;4.10;1.07;;;;;;;;;;5073634;28;20498;-61
2021/09/03 09:34:56;;;;;;;4.40;1.20;;;;;;;;;;5056518;28;20032;-61
2021/09/03 09:37:23;;;;;;;7.93;1.70;;;;;;;;;;5079564;28;20089;-60
2021/09/03 09:39:57;;;;;;;2.63;1.10;;;;;;;;;;5092100;28;20341;-61
2021/09/03 09:42:24;;;;;;;2.13;1.27;;;;;;;;;;5087785;28;20473;-61
2021/09/03 09:45:03;;;;;;;9.03;1.40;;;;;;;;;;5088552;28;20051;-60
2021/09/03 09:47:30;;;;;;;1.90;1.20;;;;;;;;;;5086455;28;20020;-60
2021/09/03 09:49:57;;;;;;;6.30;1.60;;;;;;;;;;5089297;28;20020;-60
2021/09/03 09:52:36;;;;;;;2.50;1.10;;;;;;;;;;5092802;28;20028;-61
2021/09/03 09:55:06;;;;;;;2.47;1.13;;;;;;;;;;5065238;28;20117;-61
2021/09/03 09:57:35;;;;;;;4.70;1.33;;;;;;;;;;5073236;28;20108;-60
2021/09/03 10:00:05;;;;;;;7.50;1.40;;;;;;;;;;5072804;28;20032;-60
2021/09/03 10:02:34;;;;;;;4.20;1.30;;;;;;;;;;5070764;28;20028;-61
2021/09/03 10:05:04;;;;;;;4.73;1.50;;;;;;;;;;5067737;28;20426;-61
2021/09/03 10:07:31;;;;;;;3.50;1.30;;;;;;;;;;5067555;28;20491;-61
2021/09/03 10:09:58;;;;;;;3.23;1.10;;;;;;;;;;5078874;28;20036;-61
2021/09/03 10:12:25;;;;;;;3.97;1.43;;;;;;;;;;5089985;28;20467;-61
2021/09/03 10:14:52;;;;;;;5.10;1.33;;;;;;;;;;5092577;28;20424;-61
2021/09/03 10:17:20;;;;;;;3.30;1.30;;;;;;;;;;5093048;28;20352;-61
2021/09/03 10:19:50;;;;;;;5.23;1.47;;;;;;;;;;5092091;28;20042;-61
2021/09/03 10:22:17;;;;;;;2.33;1.20;;;;;;;;;;5090654;28;20421;-61
2021/09/03 10:24:45;;;;;;;2.47;1.00;;;;;;;;;;5052934;28;20021;-62
2021/09/03 10:27:13;;;;;;;2.80;1.17;;;;;;;;;;5067285;28;20464;-61
2021/09/03 10:29:44;;;;;;;3.77;1.30;;;;;;;;;;5067466;28;20445;-61
2021/09/03 10:32:13;;;;;;;9.73;1.10;;;;;;;;;;5067506;28;20074;-62
2021/09/03 10:34:43;;;;;;;2.87;1.27;;;;;;;;;;5074473;28;20051;-61
2021/09/03 10:37:19;;;;;;;6.67;1.40;;;;;;;;;;5092235;28;20127;-61
2021/09/03 10:40:06;;;;;;;6.57;1.23;;;;;;;;;;5092697;28;20028;-61
2021/09/03 10:42:55;;;;;;;3.87;1.20;;;;;;;;;;5075439;28;20078;-61
2021/09/03 10:45:24;;;;;;;3.20;1.17;;;;;;;;;;5072442;28;20017;-61
2021/09/03 10:47:57;;;;;;;3.80;1.10;;;;;;;;;;5069182;28;20029;-61
2021/09/03 10:50:30;;;;;;;4.70;1.40;;;;;;;;;;5071979;28;20073;-61
2021/09/03 10:53:06;;;;;;;2.23;1.10;;;;;;;;;;5086916;28;20016;-61
2021/09/03 10:55:51;;;;;;;2.00;0.90;;;;;;;;;;5086441;28;20024;-61
2021/09/03 10:58:36;;;;;;;3.15;1.30;;;;;;;;;;5076036;28;20044;-61
2021/09/03 11:01:12;;;;;;;4.93;1.13;;;;;;;;;;5072321;28;20024;-61
2021/09/03 11:03:50;;;;;;;4.83;1.30;;;;;;;;;;5072072;28;20120;-61
2021/09/03 11:06:27;;;;;;;1.60;1.13;;;;;;;;;;5071860;28;20035;-61
2021/09/03 11:09:01;;;;;;;4.43;1.20;;;;;;;;;;5075188;28;20386;-61
2021/09/03 11:11:32;;;;;;;2.60;1.10;;;;;;;;;;5071155;28;20020;-61
2021/09/03 11:14:01;;;;;;;1.63;1.00;;;;;;;;;;5071484;28;20070;-61
2021/09/03 11:16:34;;;;;;;3.53;1.00;;;;;;;;;;5071090;28;20033;-61
2021/09/03 11:19:08;;;;;;;2.23;1.20;;;;;;;;;;5072048;28;20032;-61
2021/09/03 11:21:40;;;;;;;3.72;1.10;;;;;;;;;;5086582;28;20020;-61
2021/09/03 11:24:07;;;;;;;3.87;1.00;;;;;;;;;;5056295;28;20021;-61
2021/09/03 11:26:36;;;;;;;3.53;1.10;;;;;;;;;;5088685;28;20446;-61
2021/09/03 11:29:32;;;;;;;7.50;2.30;;;;;;;;;;5077800;28;20536;-61
2021/09/03 11:32:10;;;;;;;11.77;1.53;;;;;;;;;;5063678;28;20101;-61
2021/09/03 11:34:40;;;;;;;3.97;1.07;;;;;;;;;;5090381;28;20034;-62
2021/09/03 11:37:07;;;;;;;3.83;0.90;;;;;;;;;;5085047;28;20041;-61
2021/09/03 11:39:34;;;;;;;3.60;1.03;;;;;;;;;;5070742;28;20108;-61
2021/09/03 11:42:01;;;;;;;2.50;1.00;;;;;;;;;;5090796;28;20107;-61
2021/09/03 11:44:28;;;;;;;7.07;1.20;;;;;;;;;;5082422;28;20028;-61
2021/09/03 11:46:55;;;;;;;3.40;1.00;;;;;;;;;;5075352;28;20033;-61
2021/09/03 11:49:22;;;;;;;5.47;1.10;;;;;;;;;;5075651;28;20063;-61
2021/09/03 11:52:02;;;;;;;4.43;1.37;;;;;;;;;;5078088;28;20020;-61
2021/09/03 11:54:29;;;;;;;2.93;1.30;;;;;;;;;;5093193;28;20028;-61
2021/09/03 11:56:59;;;;;;;10.93;1.10;;;;;;;;;;5089887;28;20036;-61
2021/09/03 11:59:26;;;;;;;2.20;0.80;;;;;;;;;;5089828;28;20441;-61
2021/09/03 12:02:04;;;;;;;4.20;0.83;;;;;;;;;;5090069;28;20104;-61
2021/09/03 12:04:31;;;;;;;1.73;0.97;;;;;;;;;;5092660;28;20409;-61
2021/09/03 12:06:58;;;;;;;2.70;1.20;;;;;;;;;;5095182;28;20031;-61
2021/09/03 12:09:32;;;;;;;2.93;1.00;;;;;;;;;;5095344;28;20031;-61
2021/09/03 12:11:59;;;;;;;2.90;1.00;;;;;;;;;;5094947;28;20039;-61
2021/09/03 12:14:26;;;;;;;10.33;1.40;;;;;;;;;;5095135;28;20265;-60
2021/09/03 12:16:53;;;;;;;9.20;1.30;;;;;;;;;;5092344;28;20036;-61
2021/09/03 12:19:24;;;;;;;3.93;1.43;;;;;;;;;;5088993;28;20077;-60
2021/09/03 12:21:51;;;;;;;2.73;1.10;;;;;;;;;;5084377;28;20043;-61
2021/09/03 12:24:18;;;;;;;1.93;1.13;;;;;;;;;;5089653;28;20020;-61
2021/09/03 12:26:52;;;;;;;2.57;1.37;;;;;;;;;;5091740;28;20035;-61
2021/09/03 12:29:22;;;;;;;3.35;1.55;;;;;;;;;;5094444;28;20439;-60
2021/09/03 12:31:51;;;;;;;5.30;1.60;;;;;;;;;;5086417;28;20050;-60
2021/09/03 12:34:18;;;;;;;2.90;1.00;;;;;;;;;;5074925;28;20044;-61
2021/09/03 12:36:45;;;;;;;3.70;1.40;;;;;;;;;;5074627;28;20028;-60
2021/09/03 12:39:21;;;;;;;4.30;1.00;;;;;;;;;;5071802;28;20484;-61
2021/09/03 12:41:48;;;;;;;2.40;1.27;;;;;;;;;;5069437;28;20028;-61
2021/09/03 12:44:32;;;;;;;7.17;1.10;;;;;;;;;;5069357;28;20498;-60
2021/09/03 12:46:59;;;;;;;9.33;1.53;;;;;;;;;;5069957;28;20173;-61
2021/09/03 12:49:27;;;;;;;2.63;1.20;;;;;;;;;;5086597;28;20420;-61
2021/09/03 12:52:06;;;;;;;6.37;1.80;;;;;;;;;;5074439;28;20107;-61
2021/09/03 12:54:37;;;;;;;8.03;2.00;;;;;;;;;;5074201;28;20032;-60
2021/09/03 12:57:05;;;;;;;4.30;1.60;;;;;;;;;;5074296;28;20064;-60
2021/09/03 12:59:32;;;;;;;3.30;1.33;;;;;;;;;;5075299;28;20024;-60
2021/09/03 13:01:58;;;;;;;2.63;1.20;;;;;;;;;;5071103;28;20029;-61
2021/09/03 13:04:26;;;;;;;2.37;1.40;;;;;;;;;;5082218;28;20036;-61
2021/09/03 13:06:55;;;;;;;2.80;1.20;;;;;;;;;;5089093;28;20036;-61
2021/09/03 13:09:23;;;;;;;4.50;1.27;;;;;;;;;;5089083;28;20024;-60
2021/09/03 13:11:50;;;;;;;3.10;1.40;;;;;;;;;;5091191;28;20070;-60
2021/09/03 13:14:17;;;;;;;4.77;1.30;;;;;;;;;;5093809;28;20032;-61
2021/09/03 13:16:44;;;;;;;5.20;1.33;;;;;;;;;;5076053;28;20041;-60
2021/09/03 13:19:12;;;;;;;5.87;1.20;;;;;;;;;;5079037;28;20107;-61
2021/09/03 13:21:40;;;;;;;2.90;1.23;;;;;;;;;;5073883;28;20025;-61
2021/09/03 13:24:06;;;;;;;4.90;1.40;;;;;;;;;;5071201;28;20024;-61
2021/09/03 13:26:33;;;;;;;5.20;1.33;;;;;;;;;;5068469;28;20379;-61
2021/09/03 13:29:01;;;;;;;3.10;0.90;;;;;;;;;;5068292;28;20107;-60
2021/09/03 13:31:27;;;;;;;4.27;1.10;;;;;;;;;;5067687;28;20040;-60
2021/09/03 13:33:56;;;;;;;2.97;1.07;;;;;;;;;;5070199;28;20021;-61
2021/09/03 13:36:24;;;;;;;2.40;1.00;;;;;;;;;;5073286;28;20044;-60
2021/09/03 13:38:58;;;;;;;3.73;0.83;;;;;;;;;;5073476;28;20063;-60
2021/09/03 13:41:29;;;;;;;3.28;1.20;;;;;;;;;;5073561;28;20367;-61
2021/09/03 13:43:56;;;;;;;7.13;1.23;;;;;;;;;;5073278;28;20357;-61
2021/09/03 13:46:23;;;;;;;5.27;1.10;;;;;;;;;;5071923;28;20035;-60
2021/09/03 13:48:50;;;;;;;2.27;1.13;;;;;;;;;;5067829;28;20442;-60
2021/09/03 13:51:17;;;;;;;4.97;1.40;;;;;;;;;;5081960;28;20479;-60
2021/09/03 13:53:45;;;;;;;2.87;1.47;;;;;;;;;;5088214;28;20442;-61
2021/09/03 13:56:13;;;;;;;3.37;1.30;;;;;;;;;;5089452;28;20036;-60
2021/09/03 13:58:40;;;;;;;3.70;1.80;;;;;;;;;;5093221;28;20382;-61
2021/09/03 14:01:06;;;;;;;6.07;1.87;;;;;;;;;;5092973;28;20089;-60
2021/09/03 14:03:33;;;;;;;2.90;1.50;;;;;;;;;;5091456;28;20506;-61
2021/09/03 14:06:00;;;;;;;8.03;1.73;;;;;;;;;;5079855;28;20027;-60
2021/09/03 14:08:27;;;;;;;6.00;1.47;;;;;;;;;;5091314;28;20086;-61
2021/09/03 14:10:54;;;;;;;3.20;1.23;;;;;;;;;;5087671;28;20032;-61
2021/09/03 14:13:20;;;;;;;4.63;1.27;;;;;;;;;;5088071;28;20020;-60
2021/09/03 14:15:48;;;;;;;2.20;1.20;;;;;;;;;;5087538;28;20040;-60
2021/09/03 14:18:14;;;;;;;4.77;1.67;;;;;;;;;;5088373;28;20020;-61
2021/09/03 14:20:41;;;;;;;5.43;1.43;;;;;;;;;;5092596;28;20084;-61
2021/09/03 14:23:09;;;;;;;1.67;1.20;;;;;;;;;;5075014;28;20032;-61
2021/09/03 14:25:36;;;;;;;3.37;1.73;;;;;;;;;;5072798;28;20024;-60
2021/09/03 14:28:05;;;;;;;2.97;1.83;;;;;;;;;;5072604;28;20035;-60
2021/09/03 14:30:34;;;;;;;3.77;1.80;;;;;;;;;;5071229;28;20072;-60
2021/09/03 14:33:01;;;;;;;5.20;1.90;;;;;;;;;;5077374;28;20099;-61
2021/09/03 14:35:28;;;;;;;4.83;2.27;;;;;;;;;;5086977;28;20032;-61
2021/09/03 14:37:55;;;;;;;4.80;2.47;;;;;;;;;;5086741;28;20059;-60
2021/09/03 14:40:21;;;;;;;4.77;2.93;;;;;;;;;;5087485;28;20032;-60
2021/09/03 14:42:48;;;;;;;6.73;2.57;;;;;;;;;;5092226;28;20530;-60
2021/09/03 14:45:15;;;;;;;4.30;3.07;;;;;;;;;;5092683;28;20103;-61
2021/09/03 14:47:42;;;;;;;7.60;3.80;;;;;;;;;;5092557;28;20019;-61
2021/09/03 14:50:09;;;;;;;6.43;2.20;;;;;;;;;;5092207;28;20085;-60